Time;durP1;ratioP1;P1;durP2;ratioP2;P2;SDS_P1;SDS_P2;PMS_P1;PMS_P2;Temp;Humidity;BMP_temperature;BMP_pressure;BME280_temperature;BME280_humidity;BME280_pressure;Samples;Min_cycle;Max_cycle;Signal;HPM_P1;HPM_P2
2022/06/30 00:01:22;;;;;;;9.98;5.85;;;18.10;99.90;;;;;;5093975;28;20593;-74
2022/06/30 00:03:48;;;;;;;10.57;4.82;;;18.10;99.90;;;;;;5078047;28;20017;-74
2022/06/30 00:06:14;;;;;;;12.88;5.88;;;18.10;99.90;;;;;;5080670;28;20036;-73
2022/06/30 00:08:40;;;;;;;11.45;4.90;;;18.10;99.90;;;;;;5080070;28;20546;-74
2022/06/30 00:11:08;;;;;;;6.38;4.82;;;18.10;99.90;;;;;;5082933;28;20052;-74
2022/06/30 00:13:36;;;;;;;8.85;5.40;;;18.00;99.90;;;;;;5082649;28;20024;-73
2022/06/30 00:16:02;;;;;;;8.55;5.50;;;18.00;99.90;;;;;;5092771;28;20024;-73
2022/06/30 00:18:29;;;;;;;14.23;5.00;;;18.00;99.90;;;;;;5088388;28;20104;-74
2022/06/30 00:20:54;;;;;;;9.88;5.03;;;18.00;99.90;;;;;;5091793;28;20028;-73
2022/06/30 00:23:20;;;;;;;8.82;5.30;;;18.00;99.90;;;;;;5092605;28;20036;-72
2022/06/30 00:25:47;;;;;;;12.90;5.38;;;17.90;99.90;;;;;;5090418;28;20016;-73
2022/06/30 00:28:13;;;;;;;9.25;5.30;;;17.90;99.90;;;;;;5094179;28;20055;-73
2022/06/30 00:30:39;;;;;;;11.98;5.13;;;17.90;99.90;;;;;;5093110;28;20021;-73
2022/06/30 00:33:05;;;;;;;8.45;5.20;;;17.80;99.90;;;;;;5096138;28;20021;-73
2022/06/30 00:35:30;;;;;;;15.00;5.68;;;17.80;99.90;;;;;;5094064;28;20597;-73
2022/06/30 00:37:56;;;;;;;10.10;4.75;;;17.80;99.90;;;;;;5077525;28;20039;-73
2022/06/30 00:40:22;;;;;;;8.10;4.70;;;17.80;99.90;;;;;;5082916;28;20048;-73
2022/06/30 00:42:48;;;;;;;11.90;4.35;;;17.80;99.90;;;;;;5080686;28;20452;-73
2022/06/30 00:45:14;;;;;;;8.50;4.30;;;17.80;99.90;;;;;;5085486;28;20091;-73
2022/06/30 00:47:40;;;;;;;7.18;4.35;;;17.80;99.90;;;;;;5084545;28;20449;-72
2022/06/30 00:50:07;;;;;;;6.00;4.30;;;17.70;99.90;;;;;;5087580;28;20052;-73
2022/06/30 00:52:36;;;;;;;11.32;4.63;;;17.70;99.90;;;;;;5088269;28;20020;-73
2022/06/30 00:55:04;;;;;;;7.68;4.15;;;17.70;99.90;;;;;;5090417;28;20514;-73
2022/06/30 00:57:31;;;;;;;8.48;3.90;;;17.60;99.90;;;;;;5091596;28;20021;-73
2022/06/30 00:59:58;;;;;;;8.10;5.13;;;17.60;99.90;;;;;;5092356;28;20444;-73
2022/06/30 01:02:25;;;;;;;10.60;4.20;;;17.60;99.90;;;;;;5095040;28;20024;-73
2022/06/30 01:04:53;;;;;;;10.48;4.10;;;17.50;99.90;;;;;;5094595;28;20031;-73
2022/06/30 01:07:22;;;;;;;11.07;3.70;;;17.50;99.90;;;;;;5093305;28;20039;-73
2022/06/30 01:12:44;;;;;;;7.00;3.63;;;17.50;99.90;;;;;;5093680;28;20030;-73
2022/06/30 01:15:18;;;;;;;6.18;3.55;;;17.50;99.90;;;;;;5089852;28;20024;-73
2022/06/30 01:17:45;;;;;;;9.95;3.95;;;17.50;99.90;;;;;;5098059;28;20027;-73
2022/06/30 01:20:12;;;;;;;6.80;3.60;;;17.50;99.90;;;;;;5089418;28;20016;-73
2022/06/30 01:22:39;;;;;;;8.27;3.95;;;17.40;99.90;;;;;;5081968;28;20012;-73
2022/06/30 01:25:07;;;;;;;7.63;4.13;;;17.40;99.90;;;;;;5091059;28;20044;-73
2022/06/30 01:27:33;;;;;;;11.70;3.63;;;17.50;99.90;;;;;;5088159;28;20099;-73
2022/06/30 01:29:59;;;;;;;5.68;4.10;;;17.50;99.90;;;;;;5083964;28;20021;-73
2022/06/30 01:32:28;;;;;;;12.25;5.38;;;17.50;99.90;;;;;;5089317;28;20028;-73
2022/06/30 01:34:53;;;;;;;10.70;3.50;;;17.50;99.90;;;;;;5086098;28;20025;-73
2022/06/30 01:37:19;;;;;;;11.13;4.00;;;17.60;99.90;;;;;;5091284;28;20494;-72
2022/06/30 01:39:45;;;;;;;9.40;3.75;;;17.60;99.90;;;;;;5090339;28;20023;-73
2022/06/30 01:42:12;;;;;;;10.57;3.95;;;17.60;99.90;;;;;;5097839;28;20027;-73
2022/06/30 01:44:38;;;;;;;7.38;3.90;;;17.60;99.90;;;;;;5094511;28;20023;-73
2022/06/30 01:47:04;;;;;;;8.93;3.42;;;17.50;99.90;;;;;;5096144;28;20028;-72
2022/06/30 01:49:30;;;;;;;9.77;3.78;;;17.50;99.90;;;;;;5098149;28;20016;-73
2022/06/30 01:51:56;;;;;;;10.55;4.22;;;17.50;99.90;;;;;;5098160;28;20399;-73
2022/06/30 01:54:23;;;;;;;8.77;3.75;;;17.50;99.90;;;;;;5086685;28;20102;-73
2022/06/30 01:56:49;;;;;;;9.60;3.95;;;17.40;99.90;;;;;;5081811;28;20024;-73
2022/06/30 01:59:15;;;;;;;14.27;3.85;;;17.40;99.90;;;;;;5093571;28;20016;-73
2022/06/30 02:01:41;;;;;;;7.68;3.42;;;17.40;99.90;;;;;;5098975;28;20458;-73
2022/06/30 02:06:52;;;;;;;7.88;3.60;;;17.30;99.90;;;;;;5089417;28;20081;-72
2022/06/30 02:09:18;;;;;;;6.78;3.50;;;17.30;99.90;;;;;;5096271;28;20025;-72
2022/06/30 02:11:43;;;;;;;11.30;3.60;;;17.20;99.90;;;;;;5091332;28;20085;-73
2022/06/30 02:14:09;;;;;;;7.22;3.88;;;17.20;99.90;;;;;;5079196;28;20021;-73
2022/06/30 02:16:35;;;;;;;8.02;3.78;;;17.20;99.90;;;;;;5092935;28;20054;-73
2022/06/30 02:19:01;;;;;;;11.52;4.45;;;17.20;99.90;;;;;;5083482;28;20542;-73
2022/06/30 02:21:27;;;;;;;10.70;4.68;;;17.10;99.90;;;;;;5085387;28;20031;-73
2022/06/30 02:23:53;;;;;;;9.27;3.65;;;17.10;99.90;;;;;;5084608;28;20025;-74
2022/06/30 02:26:19;;;;;;;10.80;3.90;;;17.10;99.90;;;;;;5089157;28;20031;-73
2022/06/30 02:28:44;;;;;;;9.35;3.63;;;17.10;99.90;;;;;;5087468;28;20396;-73
2022/06/30 02:31:13;;;;;;;12.57;3.83;;;17.10;99.90;;;;;;5093389;28;20032;-73
2022/06/30 02:33:42;;;;;;;5.75;3.28;;;17.10;99.90;;;;;;5094714;28;20020;-73
2022/06/30 02:36:08;;;;;;;15.82;5.65;;;17.00;99.90;;;;;;5095754;28;20476;-73
2022/06/30 02:38:34;;;;;;;13.02;4.80;;;17.00;99.90;;;;;;5093030;28;20123;-73
2022/06/30 02:41:00;;;;;;;12.80;5.22;;;17.00;99.90;;;;;;5095869;28;20133;-73
2022/06/30 02:43:26;;;;;;;9.13;4.57;;;17.00;99.90;;;;;;5097556;28;20020;-73
2022/06/30 02:45:51;;;;;;;10.07;3.97;;;17.00;99.90;;;;;;5090234;28;20069;-73
2022/06/30 02:48:18;;;;;;;9.18;3.92;;;17.00;99.90;;;;;;5081742;28;20016;-73
2022/06/30 02:50:44;;;;;;;9.98;4.32;;;17.00;99.90;;;;;;5080772;28;20055;-73
2022/06/30 02:53:11;;;;;;;15.88;4.93;;;17.00;99.90;;;;;;5082542;28;20078;-73
2022/06/30 02:55:37;;;;;;;14.90;3.83;;;17.00;99.90;;;;;;5083851;28;20093;-73
2022/06/30 02:58:03;;;;;;;19.10;4.38;;;17.00;99.90;;;;;;5085611;28;20449;-73
2022/06/30 03:00:30;;;;;;;7.63;4.00;;;17.00;99.90;;;;;;5087999;28;20738;-73
2022/06/30 03:02:57;;;;;;;11.35;4.05;;;17.00;99.90;;;;;;5085913;28;20028;-73
2022/06/30 03:05:24;;;;;;;13.57;4.38;;;17.00;99.90;;;;;;5096704;28;20107;-73
2022/06/30 03:07:50;;;;;;;12.80;3.42;;;16.90;99.90;;;;;;5094418;28;20016;-73
2022/06/30 03:10:16;;;;;;;8.02;3.95;;;16.90;99.90;;;;;;5095747;28;20031;-72
2022/06/30 03:12:42;;;;;;;20.95;5.47;;;16.90;99.90;;;;;;5095740;28;20028;-73
2022/06/30 03:15:08;;;;;;;12.88;4.22;;;16.80;99.90;;;;;;5090013;28;20031;-73
2022/06/30 03:17:34;;;;;;;9.70;3.88;;;16.90;99.90;;;;;;5091293;28;20024;-73
2022/06/30 03:20:00;;;;;;;10.02;3.90;;;16.80;99.90;;;;;;5090309;28;20571;-73
2022/06/30 03:22:26;;;;;;;14.82;5.05;;;16.80;99.90;;;;;;5091999;28;20043;-73
2022/06/30 03:24:51;;;;;;;9.60;3.97;;;16.80;99.90;;;;;;5092836;28;20039;-73
2022/06/30 03:27:18;;;;;;;10.82;4.57;;;16.70;99.90;;;;;;5091093;28;20548;-73
2022/06/30 03:29:44;;;;;;;13.40;5.28;;;16.70;99.90;;;;;;5094611;28;20036;-73
2022/06/30 03:32:10;;;;;;;11.57;4.47;;;16.70;99.90;;;;;;5096598;28;20396;-73
2022/06/30 03:34:36;;;;;;;12.13;3.67;;;16.70;99.90;;;;;;5088432;28;20025;-73
2022/06/30 03:37:02;;;;;;;10.60;3.90;;;16.70;99.90;;;;;;5080960;28;20024;-73
2022/06/30 03:39:28;;;;;;;12.40;4.00;;;16.60;99.90;;;;;;5090773;28;20028;-73
2022/06/30 03:41:53;;;;;;;9.82;4.03;;;16.60;99.90;;;;;;5083414;28;20028;-73
2022/06/30 03:44:19;;;;;;;9.35;4.35;;;16.60;99.90;;;;;;5081174;28;20031;-73
2022/06/30 03:46:45;;;;;;;9.65;3.90;;;16.50;99.90;;;;;;5083984;28;20441;-73
2022/06/30 03:49:11;;;;;;;8.88;4.28;;;16.50;99.90;;;;;;5086928;28;20020;-73
2022/06/30 03:51:37;;;;;;;8.57;3.90;;;16.50;99.90;;;;;;5085211;28;20101;-73
2022/06/30 03:54:03;;;;;;;9.52;3.30;;;16.50;99.90;;;;;;5090292;28;20458;-73
2022/06/30 03:56:29;;;;;;;15.48;4.03;;;16.50;99.90;;;;;;5087204;28;20025;-73
2022/06/30 03:58:54;;;;;;;11.20;3.80;;;16.50;99.90;;;;;;5093137;28;20027;-73
2022/06/30 04:01:20;;;;;;;17.38;3.88;;;16.40;99.90;;;;;;5091133;28;20024;-73
2022/06/30 04:03:46;;;;;;;16.58;3.97;;;16.50;99.90;;;;;;5094138;28;20027;-73
2022/06/30 04:06:12;;;;;;;13.90;4.35;;;16.40;99.90;;;;;;5095001;28;20362;-72
2022/06/30 04:08:38;;;;;;;13.00;6.18;;;16.40;99.90;;;;;;5088195;28;20039;-73
2022/06/30 04:11:03;;;;;;;7.72;3.58;;;16.40;99.90;;;;;;5079022;28;20017;-73
2022/06/30 04:13:29;;;;;;;10.35;4.13;;;16.40;99.90;;;;;;5093893;28;20419;-72
2022/06/30 04:15:55;;;;;;;13.45;4.47;;;16.40;99.90;;;;;;5093041;28;20013;-73
2022/06/30 04:18:21;;;;;;;12.18;4.78;;;16.40;99.90;;;;;;5096095;28;20020;-73
2022/06/30 04:20:47;;;;;;;11.80;4.43;;;16.40;99.90;;;;;;5096501;28;20556;-73
2022/06/30 04:23:13;;;;;;;10.23;3.60;;;16.40;99.90;;;;;;5089585;28;20036;-73
2022/06/30 04:25:39;;;;;;;7.38;3.50;;;16.40;99.90;;;;;;5087707;28;20020;-73
2022/06/30 04:28:05;;;;;;;10.18;3.13;;;16.30;99.90;;;;;;5092652;28;20032;-73
2022/06/30 04:33:15;;;;;;;13.30;3.97;;;16.30;99.90;;;;;;5095462;28;20081;-73
2022/06/30 04:35:41;;;;;;;8.40;3.78;;;16.30;99.90;;;;;;5094895;28;20020;-72
2022/06/30 04:38:07;;;;;;;12.38;3.75;;;16.30;99.90;;;;;;5085348;28;20033;-73
2022/06/30 04:43:18;;;;;;;8.52;3.63;;;16.20;99.90;;;;;;5079940;28;20028;-73
2022/06/30 04:45:44;;;;;;;16.25;3.92;;;16.20;99.90;;;;;;5085473;28;20036;-72
2022/06/30 04:48:11;;;;;;;13.68;3.72;;;16.20;99.90;;;;;;5088557;28;20036;-72
2022/06/30 04:50:37;;;;;;;8.88;3.72;;;16.20;99.90;;;;;;5090545;28;20051;-72
2022/06/30 04:53:04;;;;;;;9.50;4.30;;;16.20;99.90;;;;;;5088285;28;20515;-74
2022/06/30 04:55:29;;;;;;;7.68;3.95;;;16.20;99.90;;;;;;5094072;28;20030;-73
2022/06/30 04:57:55;;;;;;;11.68;3.40;;;16.30;99.90;;;;;;5100319;28;20032;-74
2022/06/30 05:00:21;;;;;;;11.27;4.15;;;16.30;99.90;;;;;;5094545;28;20016;-74
2022/06/30 05:02:47;;;;;;;11.63;4.20;;;16.20;99.90;;;;;;5087570;28;20077;-74
2022/06/30 05:05:13;;;;;;;8.82;3.47;;;16.30;99.90;;;;;;5093328;28;20073;-74
2022/06/30 05:07:39;;;;;;;13.93;4.05;;;16.20;99.90;;;;;;5082345;28;20035;-74
2022/06/30 05:10:05;;;;;;;7.10;3.80;;;16.20;99.90;;;;;;5083063;28;20024;-74
2022/06/30 05:12:31;;;;;;;7.10;3.15;;;16.30;99.90;;;;;;5094164;28;20020;-74
2022/06/30 05:14:58;;;;;;;7.35;3.88;;;16.20;99.90;;;;;;5089079;28;20437;-73
2022/06/30 05:17:24;;;;;;;9.52;3.30;;;16.30;99.90;;;;;;5090818;28;20448;-75
2022/06/30 05:19:50;;;;;;;11.52;3.63;;;16.30;99.90;;;;;;5091665;28;20077;-74
2022/06/30 05:22:16;;;;;;;10.73;4.03;;;16.30;99.90;;;;;;5089233;28;20500;-74
2022/06/30 05:27:27;;;;;;;8.35;3.25;;;16.30;99.90;;;;;;5094058;28;20058;-74
2022/06/30 05:29:54;;;;;;;5.55;3.40;;;16.30;99.90;;;;;;5099519;28;20099;-74
2022/06/30 05:32:20;;;;;;;10.55;3.40;;;16.30;99.90;;;;;;5096812;28;20099;-73
2022/06/30 05:34:46;;;;;;;14.60;3.78;;;16.40;99.90;;;;;;5099687;28;20051;-74
2022/06/30 05:37:13;;;;;;;8.93;3.83;;;16.40;99.90;;;;;;5081166;28;20016;-73
2022/06/30 05:39:39;;;;;;;10.02;3.30;;;16.40;99.90;;;;;;5081323;28;20017;-74
2022/06/30 05:42:05;;;;;;;8.15;3.30;;;16.40;99.90;;;;;;5081305;28;20032;-72
2022/06/30 05:44:32;;;;;;;10.57;3.28;;;16.40;99.90;;;;;;5091138;28;20065;-72
2022/06/30 05:46:58;;;;;;;9.35;3.40;;;16.40;99.90;;;;;;5094455;28;20030;-71
2022/06/30 05:49:25;;;;;;;11.57;3.67;;;16.40;99.90;;;;;;5091494;28;20024;-72
2022/06/30 05:51:51;;;;;;;15.35;3.47;;;16.40;99.90;;;;;;5095602;28;20032;-71
2022/06/30 05:54:17;;;;;;;9.88;3.78;;;16.30;99.90;;;;;;5084405;28;20028;-73
2022/06/30 05:56:43;;;;;;;14.68;3.50;;;16.30;99.90;;;;;;5089983;28;20082;-73
2022/06/30 05:59:08;;;;;;;13.55;3.70;;;16.30;99.90;;;;;;5088818;28;20020;-72
2022/06/30 06:01:34;;;;;;;8.73;3.30;;;16.30;99.90;;;;;;5093422;28;20024;-73
2022/06/30 06:04:00;;;;;;;10.27;3.35;;;16.30;99.90;;;;;;5091321;28;20040;-73
2022/06/30 06:06:26;;;;;;;16.02;4.43;;;16.30;99.90;;;;;;5094033;28;20020;-73
2022/06/30 06:08:52;;;;;;;9.70;2.85;;;16.30;99.90;;;;;;5095663;28;20035;-73
2022/06/30 06:11:17;;;;;;;8.75;3.47;;;16.30;99.90;;;;;;5096286;28;20028;-73
2022/06/30 06:13:43;;;;;;;8.82;3.22;;;16.20;99.90;;;;;;5096927;28;20093;-72
2022/06/30 06:16:09;;;;;;;8.05;3.70;;;16.30;99.90;;;;;;5098221;28;20012;-72
2022/06/30 06:18:35;;;;;;;8.40;3.40;;;16.20;99.90;;;;;;5088708;28;20549;-73
2022/06/30 06:21:01;;;;;;;10.00;4.35;;;16.20;99.90;;;;;;5084173;28;20020;-73
2022/06/30 06:23:26;;;;;;;9.93;3.40;;;16.20;99.90;;;;;;5093859;28;20035;-73
2022/06/30 06:25:55;;;;;;;6.72;3.60;;;16.20;99.90;;;;;;5098166;28;20708;-73
2022/06/30 06:31:05;;;;;;;9.02;2.95;;;16.10;99.90;;;;;;5089216;28;20034;-74
2022/06/30 06:33:31;;;;;;;6.78;2.92;;;16.10;99.90;;;;;;5095548;28;20480;-72
2022/06/30 06:35:57;;;;;;;5.93;2.67;;;16.10;99.90;;;;;;5096855;28;20079;-73
2022/06/30 06:38:22;;;;;;;5.68;3.13;;;16.10;99.90;;;;;;5098162;28;20102;-73
2022/06/30 06:40:48;;;;;;;9.63;2.70;;;16.00;99.90;;;;;;5092523;28;20091;-72
2022/06/30 06:43:14;;;;;;;4.50;2.63;;;16.10;99.90;;;;;;5080509;28;20093;-74
2022/06/30 06:45:40;;;;;;;6.20;2.85;;;16.00;99.90;;;;;;5082926;28;20543;-74
2022/06/30 06:48:06;;;;;;;11.90;2.95;;;16.00;99.90;;;;;;5083123;28;20108;-72
2022/06/30 06:50:31;;;;;;;10.52;3.33;;;16.00;99.90;;;;;;5085554;28;20104;-73
2022/06/30 06:52:57;;;;;;;6.55;2.60;;;16.10;99.90;;;;;;5083940;28;20032;-73
2022/06/30 06:55:23;;;;;;;5.95;2.38;;;16.00;99.90;;;;;;5087690;28;20580;-74
2022/06/30 06:57:49;;;;;;;5.47;2.35;;;16.00;99.90;;;;;;5097884;28;20480;-73
2022/06/30 07:00:16;;;;;;;6.80;2.53;;;16.00;99.90;;;;;;5093220;28;20517;-73
2022/06/30 07:02:42;;;;;;;8.25;2.25;;;16.00;99.90;;;;;;5094017;28;20377;-73
2022/06/30 07:05:08;;;;;;;5.88;2.30;;;15.90;99.90;;;;;;5096665;28;20092;-74
2022/06/30 07:07:36;;;;;;;7.82;2.47;;;15.90;99.90;;;;;;5085827;28;20807;-74
2022/06/30 07:10:03;;;;;;;7.28;2.55;;;15.90;99.90;;;;;;5092100;28;20051;-75
2022/06/30 07:12:29;;;;;;;5.35;2.53;;;15.90;99.90;;;;;;5092419;28;20051;-73
2022/06/30 07:14:54;;;;;;;8.85;2.45;;;15.80;99.90;;;;;;5092734;28;20460;-74
2022/06/30 07:17:20;;;;;;;4.50;2.65;;;15.90;99.90;;;;;;5113905;27;20031;-74
2022/06/30 07:19:46;;;;;;;6.15;2.78;;;15.90;99.90;;;;;;5096376;28;20027;-73
2022/06/30 07:22:12;;;;;;;4.35;2.72;;;15.80;99.90;;;;;;5096852;28;20399;-73
2022/06/30 07:24:38;;;;;;;6.88;3.15;;;15.80;99.90;;;;;;5089937;28;20021;-72
2022/06/30 07:27:04;;;;;;;6.03;3.35;;;15.80;99.90;;;;;;5080048;28;20062;-73
2022/06/30 07:29:30;;;;;;;6.57;2.72;;;15.90;99.90;;;;;;5083067;28;20027;-74
2022/06/30 07:31:57;;;;;;;7.20;2.60;;;15.90;99.90;;;;;;5097658;28;20024;-73
2022/06/30 07:34:23;;;;;;;7.70;3.05;;;15.90;99.90;;;;;;5092767;28;20032;-73
2022/06/30 07:36:49;;;;;;;6.45;3.08;;;16.00;99.90;;;;;;5095608;28;20024;-74
2022/06/30 07:39:14;;;;;;;6.45;2.45;;;16.10;99.90;;;;;;5096343;28;20020;-73
2022/06/30 07:41:40;;;;;;;5.82;2.45;;;16.20;99.90;;;;;;5085713;28;20021;-73
2022/06/30 07:44:06;;;;;;;8.82;2.90;;;16.20;99.90;;;;;;5091548;28;20024;-73
2022/06/30 07:46:32;;;;;;;14.23;3.17;;;16.40;99.90;;;;;;5091770;28;20020;-73
2022/06/30 07:48:58;;;;;;;6.75;3.13;;;16.40;99.90;;;;;;5093520;28;20028;-73
2022/06/30 07:51:24;;;;;;;5.90;2.80;;;16.50;99.90;;;;;;5090891;28;20078;-74
2022/06/30 07:53:50;;;;;;;4.45;2.13;;;16.60;99.90;;;;;;5093893;28;20039;-74
2022/06/30 07:56:16;;;;;;;6.18;2.85;;;16.60;99.90;;;;;;5094433;28;20023;-74
2022/06/30 07:58:43;;;;;;;5.35;2.88;;;16.60;99.90;;;;;;5096731;28;20553;-74
2022/06/30 08:01:09;;;;;;;5.57;2.30;;;16.60;99.90;;;;;;5083910;28;20046;-73
2022/06/30 08:03:35;;;;;;;4.45;2.25;;;16.60;99.90;;;;;;5092428;28;20016;-73
2022/06/30 08:06:01;;;;;;;7.82;3.03;;;16.70;99.90;;;;;;5093508;28;20023;-74
2022/06/30 08:08:27;;;;;;;5.30;2.47;;;16.70;99.90;;;;;;5095254;28;20020;-73
2022/06/30 08:10:53;;;;;;;5.93;2.22;;;16.70;99.90;;;;;;5095446;28;20036;-73
2022/06/30 08:13:19;;;;;;;6.55;2.35;;;16.70;99.90;;;;;;5089227;28;20020;-73
2022/06/30 08:15:45;;;;;;;7.13;2.22;;;16.70;99.90;;;;;;5084528;28;20032;-73
2022/06/30 08:18:11;;;;;;;3.85;2.03;;;16.70;99.90;;;;;;5090403;28;20054;-73
2022/06/30 08:20:37;;;;;;;6.75;2.78;;;16.70;99.90;;;;;;5092779;28;20095;-74
2022/06/30 08:23:03;;;;;;;6.18;2.40;;;16.60;99.90;;;;;;5093397;28;20047;-74
2022/06/30 08:25:29;;;;;;;11.20;3.22;;;16.50;99.90;;;;;;5092397;28;20032;-74
2022/06/30 08:27:55;;;;;;;4.50;2.20;;;16.40;99.90;;;;;;5095532;28;20024;-73
2022/06/30 08:30:23;;;;;;;5.47;2.40;;;16.40;99.90;;;;;;5095457;28;20031;-73
2022/06/30 08:32:48;;;;;;;4.68;2.60;;;16.40;99.90;;;;;;5077208;28;20016;-73
2022/06/30 08:35:14;;;;;;;9.65;2.80;;;16.40;99.90;;;;;;5077441;28;20020;-74
2022/06/30 08:37:41;;;;;;;8.48;2.63;;;16.40;99.90;;;;;;5092062;28;20025;-74
2022/06/30 08:42:52;;;;;;;16.40;3.28;;;16.30;99.90;;;;;;5084000;28;20036;-74
2022/06/30 08:45:19;;;;;;;5.05;2.20;;;16.30;99.90;;;;;;5087675;28;20156;-73
2022/06/30 08:47:48;;;;;;;7.75;2.42;;;16.30;99.90;;;;;;5086080;28;20078;-74
2022/06/30 08:50:17;;;;;;;8.20;2.83;;;16.30;99.90;;;;;;5089623;28;20050;-73
2022/06/30 08:52:53;;;;;;;43.10;6.78;;;16.20;99.90;;;;;;5090548;28;20024;-73
2022/06/30 08:55:24;;;;;;;18.00;3.03;;;16.30;99.90;;;;;;5083298;28;20028;-74
2022/06/30 08:57:54;;;;;;;8.40;2.83;;;16.40;99.90;;;;;;5092409;28;20031;-74
2022/06/30 09:00:20;;;;;;;6.73;2.37;;;16.40;99.90;;;;;;5094299;28;20087;-72
2022/06/30 09:02:47;;;;;;;4.32;2.42;;;16.40;99.90;;;;;;5095967;28;20464;-74
2022/06/30 09:05:14;;;;;;;4.80;2.10;;;16.50;99.90;;;;;;5077451;28;20087;-73
2022/06/30 09:07:41;;;;;;;4.03;2.13;;;16.50;99.90;;;;;;5078905;28;20024;-74
2022/06/30 09:10:08;;;;;;;8.48;2.35;;;16.60;99.90;;;;;;5082642;28;20020;-74
2022/06/30 09:12:34;;;;;;;8.45;2.40;;;16.60;99.90;;;;;;5086071;28;20028;-73
2022/06/30 09:15:03;;;;;;;6.15;1.98;;;16.60;99.90;;;;;;5086533;28;20073;-74
2022/06/30 09:17:30;;;;;;;13.43;3.33;;;16.70;99.90;;;;;;5087870;28;20400;-72
2022/06/30 09:20:13;;;;;;;11.98;3.28;;;16.70;99.90;;;;;;5088623;28;20059;-75
2022/06/30 09:22:41;;;;;;;17.85;2.65;;;16.80;99.90;;;;;;5087192;28;20020;-73
2022/06/30 09:25:09;;;;;;;14.25;2.95;;;17.00;99.90;;;;;;5089928;28;20040;-73
2022/06/30 09:27:41;;;;;;;8.57;2.63;;;17.10;99.90;;;;;;5089590;28;20028;-75
2022/06/30 09:30:11;;;;;;;7.20;2.30;;;17.20;99.90;;;;;;5091447;28;20115;-73
2022/06/30 09:32:43;;;;;;;;;;;17.20;99.90;;;;;;5093892;28;20024;-75
2022/06/30 09:35:10;;;;;;;7.32;3.00;;;17.20;99.90;;;;;;5097520;28;19908;-74
2022/06/30 09:37:37;;;;;;;9.55;2.75;;;17.30;99.90;;;;;;5093289;28;20060;-74
2022/06/30 09:40:04;;;;;;;3.35;2.00;;;17.40;99.90;;;;;;5089351;28;20047;-73
2022/06/30 09:42:40;;;;;;;6.10;2.22;;;17.70;99.90;;;;;;5099678;28;20031;-73
2022/06/30 09:45:08;;;;;;;5.93;2.70;;;17.80;99.90;;;;;;5094694;28;20024;-74
2022/06/30 09:47:35;;;;;;;10.02;2.00;;;18.00;99.90;;;;;;5092475;28;20032;-73
2022/06/30 09:50:05;;;;;;;8.23;2.20;;;18.00;99.90;;;;;;5094084;28;20044;-73
2022/06/30 09:52:32;;;;;;;5.10;2.15;;;18.00;99.90;;;;;;5093972;28;20073;-73
2022/06/30 09:54:59;;;;;;;7.50;2.40;;;18.00;99.90;;;;;;5093521;28;20017;-74
2022/06/30 09:57:36;;;;;;;8.43;2.13;;;18.20;99.90;;;;;;5098993;28;20020;-73
2022/06/30 10:00:11;;;;;;;4.97;2.15;;;18.40;99.90;;;;;;5097072;28;20054;-74
2022/06/30 10:02:41;;;;;;;8.63;1.98;;;18.50;99.90;;;;;;5078184;28;20020;-73
2022/06/30 10:05:09;;;;;;;4.28;1.60;;;18.50;99.90;;;;;;5080076;28;20012;-73
2022/06/30 10:07:38;;;;;;;5.07;1.63;;;18.60;99.90;;;;;;5081265;28;20025;-73
2022/06/30 10:10:07;;;;;;;4.07;1.83;;;18.40;99.90;;;;;;5082662;28;20028;-73
2022/06/30 10:12:33;;;;;;;6.45;2.17;;;18.40;99.90;;;;;;5083557;28;20024;-73
2022/06/30 10:15:00;;;;;;;3.60;1.77;;;18.40;99.90;;;;;;5095872;28;20112;-72
2022/06/30 10:17:27;;;;;;;2.33;1.55;;;18.50;99.90;;;;;;5090033;28;20029;-73
2022/06/30 10:19:53;;;;;;;2.65;1.60;;;18.40;99.90;;;;;;5090812;28;20609;-72
2022/06/30 10:22:22;;;;;;;3.00;1.50;;;18.40;99.90;;;;;;5088620;28;20024;-74
2022/06/30 10:24:49;;;;;;;5.60;1.98;;;18.50;99.90;;;;;;5092679;28;20054;-73
2022/06/30 10:27:16;;;;;;;3.88;1.80;;;18.60;99.90;;;;;;5090844;28;20025;-73
2022/06/30 10:29:58;;;;;;;8.43;2.20;;;18.60;99.90;;;;;;5095868;28;20027;-74
2022/06/30 10:32:26;;;;;;;2.38;1.77;;;18.50;99.90;;;;;;5095430;28;20024;-74
2022/06/30 10:35:07;;;;;;;6.60;1.77;;;18.40;99.90;;;;;;5096462;28;20025;-73
2022/06/30 10:37:40;;;;;;;2.15;1.52;;;18.40;99.90;;;;;;5078860;28;20392;-74
2022/06/30 10:40:40;;;;;;;5.10;1.80;;;18.50;99.90;;;;;;5081075;28;20381;-74
2022/06/30 10:43:06;;;;;;;3.55;1.77;;;18.50;99.90;;;;;;5080673;28;20021;-73
2022/06/30 10:45:31;;;;;;;2.97;1.85;;;18.50;99.90;;;;;;5083851;28;20031;-73
2022/06/30 10:48:03;;;;;;;3.88;1.88;;;18.70;99.90;;;;;;5090361;28;20100;-73
2022/06/30 10:50:50;;;;;;;5.55;2.10;;;18.70;99.90;;;;;;5090172;28;20067;-75
2022/06/30 10:53:37;;;;;;;6.93;2.35;;;18.80;99.90;;;;;;5088238;28;20133;-75
2022/06/30 10:56:03;;;;;;;4.40;1.90;;;18.60;99.90;;;;;;5088260;28;20027;-76
2022/06/30 10:58:29;;;;;;;3.38;1.45;;;18.60;99.90;;;;;;5092227;28;20031;-72
2022/06/30 11:01:05;;;;;;;8.85;1.73;;;18.60;99.90;;;;;;5091673;28;20016;-74
2022/06/30 11:03:33;;;;;;;4.65;1.75;;;18.50;99.90;;;;;;5085397;28;20044;-71
2022/06/30 11:06:05;;;;;;;4.97;1.70;;;18.60;99.90;;;;;;5095161;28;20030;-73
2022/06/30 11:08:50;;;;;;;3.72;1.88;;;18.70;99.90;;;;;;5096498;28;20048;-73
2022/06/30 11:11:25;;;;;;;7.53;2.28;;;18.80;99.90;;;;;;5079929;28;20032;-72
2022/06/30 11:14:01;;;;;;;3.78;1.95;;;18.70;99.90;;;;;;5079359;28;20032;-72
2022/06/30 11:16:27;;;;;;;5.28;2.10;;;18.60;99.90;;;;;;5087516;28;20556;-73
2022/06/30 11:18:53;;;;;;;6.38;2.28;;;18.30;99.90;;;;;;5081632;28;20024;-71
2022/06/30 11:21:20;;;;;;;9.50;2.30;;;18.20;99.90;;;;;;5086182;28;20012;-71
2022/06/30 11:23:47;;;;;;;5.82;2.40;;;18.20;99.90;;;;;;5083899;28;20052;-74
2022/06/30 11:29:01;;;;;;;11.43;2.78;;;18.40;99.90;;;;;;5088408;28;20039;-71
2022/06/30 11:31:35;;;;;;;7.30;1.80;;;18.60;99.90;;;;;;5090348;28;20016;-72
2022/06/30 11:34:05;;;;;;;6.60;1.80;;;18.90;99.90;;;;;;5091297;28;20042;-73
2022/06/30 11:36:33;;;;;;;5.60;1.73;;;19.00;99.90;;;;;;5092365;28;20145;-72
2022/06/30 11:39:06;;;;;;;3.75;2.03;;;18.90;99.90;;;;;;5094389;28;20020;-71
2022/06/30 11:44:23;;;;;;;4.40;2.30;;;19.10;99.90;;;;;;5087577;28;20023;-72
2022/06/30 11:46:52;;;;;;;4.10;2.15;;;19.10;99.90;;;;;;5079371;28;20024;-72
2022/06/30 11:49:19;;;;;;;3.42;2.00;;;19.00;99.90;;;;;;5091218;28;20469;-73
2022/06/30 11:51:45;;;;;;;2.72;1.65;;;18.90;99.90;;;;;;5088346;28;20081;-72
2022/06/30 11:54:12;;;;;;;5.00;2.13;;;18.90;99.90;;;;;;5088645;28;20039;-72
2022/06/30 11:56:48;;;;;;;5.07;2.10;;;19.20;99.90;;;;;;5088172;28;20032;-72
2022/06/30 11:59:14;;;;;;;6.75;1.92;;;19.60;99.90;;;;;;5095106;28;20016;-72
2022/06/30 12:01:41;;;;;;;6.53;2.40;;;20.10;99.90;;;;;;5092120;28;20052;-72
2022/06/30 12:04:17;;;;;;;5.50;2.00;;;20.10;99.90;;;;;;5095307;28;20020;-74
2022/06/30 12:06:43;;;;;;;6.00;1.80;;;19.90;99.90;;;;;;5091230;28;20107;-72
2022/06/30 12:09:10;;;;;;;2.92;1.70;;;19.80;99.90;;;;;;5083176;28;20039;-73
2022/06/30 12:11:37;;;;;;;4.80;2.08;;;19.50;99.90;;;;;;5090091;28;20031;-72
2022/06/30 12:14:03;;;;;;;3.53;2.03;;;19.30;99.90;;;;;;5091264;28;20020;-73
2022/06/30 12:16:29;;;;;;;5.20;2.30;;;19.10;99.90;;;;;;5093525;28;20085;-72
2022/06/30 12:18:55;;;;;;;3.42;2.05;;;18.70;99.90;;;;;;5091647;28;20024;-71
2022/06/30 12:21:21;;;;;;;5.40;2.00;;;18.70;99.90;;;;;;5095544;28;20020;-72
2022/06/30 12:23:48;;;;;;;5.15;2.85;;;18.60;99.90;;;;;;5095727;28;20016;-73
2022/06/30 12:26:15;;;;;;;5.72;2.72;;;18.60;99.90;;;;;;5089069;28;20040;-72
2022/06/30 12:28:51;;;;;;;2.78;1.92;;;18.60;99.90;;;;;;5077723;28;20036;-71
2022/06/30 12:31:29;;;;;;;4.97;2.58;;;18.50;99.90;;;;;;5085021;28;20020;-71
2022/06/30 12:33:56;;;;;;;6.55;2.42;;;18.40;99.90;;;;;;5086779;28;20089;-73
2022/06/30 12:36:23;;;;;;;6.63;1.83;;;18.30;99.90;;;;;;5080093;28;20116;-73
2022/06/30 12:38:49;;;;;;;6.90;2.95;;;18.00;99.90;;;;;;5086310;28;20095;-72
2022/06/30 12:41:16;;;;;;;4.65;2.70;;;17.70;99.90;;;;;;5085935;28;20428;-73
2022/06/30 12:43:48;;;;;;;3.72;2.78;;;17.30;99.90;;;;;;5088967;28;20020;-73
2022/06/30 12:46:15;;;;;;;7.55;2.78;;;17.00;99.90;;;;;;5089013;28;20032;-73
2022/06/30 12:48:52;;;;;;;4.95;2.95;;;16.80;99.90;;;;;;5091383;28;20032;-73
2022/06/30 12:51:30;;;;;;;8.88;3.78;;;16.80;99.90;;;;;;5091949;28;20045;-73
2022/06/30 12:54:03;;;;;;;7.85;2.47;;;16.70;99.90;;;;;;5094198;28;20027;-74
2022/06/30 12:56:29;;;;;;;8.30;3.00;;;16.80;99.90;;;;;;5092716;28;20575;-74
2022/06/30 12:59:06;;;;;;;2.78;2.15;;;17.00;99.90;;;;;;5077144;28;20013;-74
2022/06/30 13:01:34;;;;;;;5.28;2.40;;;17.20;99.90;;;;;;5079734;28;20067;-74
2022/06/30 13:04:06;;;;;;;2.90;2.30;;;17.30;99.90;;;;;;5077967;28;20036;-74
2022/06/30 13:06:40;;;;;;;3.90;1.92;;;17.30;99.90;;;;;;5092389;28;20024;-74
2022/06/30 13:09:10;;;;;;;2.85;2.20;;;17.40;99.90;;;;;;5083931;28;20095;-73